Terminal Aerodrome Forecast
Issued by NWS Charleston, WV

Current Version | Previous Version | Text Only | Print | Product List | Glossary Off
Versions: 1 2 3 4 5 6 7 8 9 10 11 12 13 14 15 16 17 18 19 20 21 22

000
FTUS41 KRLX 011120
TAFCRW
TAF
KCRW 011120Z 0112/0212 VRB03KT P6SM FEW050
     FM011700 29007KT P6SM FEW060
     FM012300 VRB03KT P6SM FEW060
     FM021000 00000KT 6SM BR SCT250=

USA.gov is the U.S. government's official web portal to all federal, state and local government web resources and services.